»·PEaware :: N475RS KLAS-KPHX

N475RS :: KLAS-KPHX

FLIGHT INFORMATION

Flight Status: Arrived
Operator: Privately registered:
United States
More flights under this callsign
Pilot: Aker J. (16898)
Aircraft: BOEING 737-800
(B738)
More flights by this aircraft type
Origin: KLAS McCarran Intl
United States
Destination: KPHX Phoenix Sky Harbor Intl
United States
More flights between these airports :: More routes between these airports
Route: +PRFUM4 PRFUM WOTRO BRUSR1
File this flight plan on PilotEdge
Remarks: N475RS
Altitude:
(Current/Filed)
33,000ft
Speed:
(Current/Filed)
300kts
Departed: 05-Jan-18 03:50 PM
Arrived: 05-Jan-18 04:41 PM
Distance/Time
Traveled:
222nm/0:50
Distance/Time
To Go:
Arrived

Flight Plot

Page will automatically refresh every two minutes.

Flight plan parsing failed; only flown route is shown


Map Options




Map Legend


Flown Route
Filed Route
Departure Airport
Arrival Airport
Navaid (VOR, NDB)
Fix

Horizontal Profiles

Position Reports

Time Latitude Longitude Heading Altitude Ground
Speed
05-Jan-18 15:34 36.080623 -115.172200 89 2177ft 0kts
05-Jan-18 15:35 36.080623 -115.172200 89 2177ft 0kts
05-Jan-18 15:36 36.080623 -115.172200 89 2177ft 0kts
05-Jan-18 15:37 36.080623 -115.172200 89 2177ft 0kts
05-Jan-18 15:38 36.080623 -115.172200 89 2177ft 0kts
05-Jan-18 15:39 36.080623 -115.172200 89 2177ft 0kts
05-Jan-18 15:40 36.080623 -115.172200 89 2177ft 0kts
05-Jan-18 15:41 36.080623 -115.172200 89 2177ft 0kts
05-Jan-18 15:42 36.080623 -115.172200 89 2177ft 0kts
05-Jan-18 15:43 36.080622 -115.172180 88 2177ft 0kts
05-Jan-18 15:44 36.080622 -115.172173 88 2177ft 0kts
05-Jan-18 15:45 36.080622 -115.172173 88 2177ft 0kts
05-Jan-18 15:46 36.080622 -115.172173 88 2177ft 0kts
05-Jan-18 15:47 36.080622 -115.172173 88 2177ft 0kts
05-Jan-18 15:48 36.081300 -115.171163 60 2173ft 2kts
05-Jan-18 15:49 36.082522 -115.168659 24 2166ft 21kts
05-Jan-18 15:50 36.089974 -115.164392 24 2135ft 35kts
05-Jan-18 15:51 36.099653 -115.158066 73 2091ft 21kts
05-Jan-18 15:52 36.099828 -115.157550 73 2090ft 0kts
05-Jan-18 15:53 36.099828 -115.157550 73 2090ft 0kts
05-Jan-18 15:54 36.099828 -115.157550 73 2090ft 0kts
05-Jan-18 15:55 36.099826 -115.157266 103 2089ft 6kts
05-Jan-18 15:56 36.090092 -115.161949 205 2125ft 118kts
05-Jan-18 15:57 36.051147 -115.193470 242 3803ft 187kts
05-Jan-18 15:58 36.018877 -115.255488 230 6216ft 268kts
05-Jan-18 15:59 35.974260 -115.284506 197 6795ft 314kts
05-Jan-18 16:00 35.915670 -115.282142 180 10038ft 262kts
05-Jan-18 16:01 35.869071 -115.248785 117 10393ft 312kts
05-Jan-18 16:02 35.867628 -115.245115 116 10439ft 311kts
05-Jan-18 16:03 35.861046 -115.226483 113 10631ft 310kts
05-Jan-18 16:04 35.833968 -115.125795 108 11220ft 304kts
05-Jan-18 16:05 35.826060 -115.018702 87 15369ft 341kts
05-Jan-18 16:06 35.834570 -114.898088 83 19694ft 378kts
05-Jan-18 16:07 35.844421 -114.764166 83 23187ft 419kts
05-Jan-18 16:08 35.852612 -114.625059 97 23258ft 406kts
05-Jan-18 16:09 35.805462 -114.503160 126 24617ft 407kts
05-Jan-18 16:10 35.739832 -114.378659 126 27961ft 474kts
05-Jan-18 16:11 35.667634 -114.243034 127 31865ft 486kts
05-Jan-18 16:12 35.594155 -114.105414 126 35776ft 487kts
05-Jan-18 16:13 35.523223 -113.967728 125 39694ft 478kts
05-Jan-18 16:14 35.453903 -113.827559 123 41283ft 518kts
05-Jan-18 16:15 35.378294 -113.669580 121 41268ft 546kts
05-Jan-18 16:16 35.305210 -113.509506 120 41274ft 544kts
05-Jan-18 16:17 35.235218 -113.348627 119 41277ft 545kts
05-Jan-18 16:18 35.167766 -113.185673 118 41274ft 545kts
05-Jan-18 16:19 35.084071 -113.040998 160 41339ft 514kts
05-Jan-18 16:20 34.988320 -112.906914 131 41311ft 543kts
05-Jan-18 16:21 34.895993 -112.767852 130 40685ft 544kts
05-Jan-18 16:22 34.813467 -112.644835 131 38671ft 527kts
05-Jan-18 16:23 34.722032 -112.509125 131 35730ft 520kts
05-Jan-18 16:24 34.616734 -112.396323 144 32821ft 509kts
05-Jan-18 16:25 34.509462 -112.291554 145 29886ft 501kts
05-Jan-18 16:26 34.395695 -112.218233 172 26840ft 423kts
05-Jan-18 16:27 34.289907 -112.189669 174 23813ft 383kts
05-Jan-18 16:28 34.188796 -112.163501 173 20834ft 366kts
05-Jan-18 16:29 34.103481 -112.141521 172 18229ft 362kts
05-Jan-18 16:30 34.010954 -112.106200 164 15226ft 323kts
05-Jan-18 16:31 33.928334 -112.072810 163 12250ft 312kts
05-Jan-18 16:32 33.849733 -112.040869 162 11076ft 313kts
05-Jan-18 16:33 33.791780 -112.017352 163 11027ft 301kts
05-Jan-18 16:34 33.711283 -111.984779 162 9304ft 298kts
05-Jan-18 16:35 33.636593 -111.954622 162 7349ft 282kts
05-Jan-18 16:36 33.565514 -111.925917 162 7034ft 270kts
05-Jan-18 16:37 33.531219 -111.851796 89 7032ft 277kts
05-Jan-18 16:38 33.531140 -111.758891 89 5842ft 276kts
05-Jan-18 16:39 33.516345 -111.683110 160 5053ft 235kts
05-Jan-18 16:40 33.450541 -111.679343 193 4851ft 241kts
05-Jan-18 16:41 33.415002 -111.728131 240 4065ft 224kts
05-Jan-18 16:42 33.386022 -111.787682 240 4010ft 191kts
05-Jan-18 16:43 33.400393 -111.841445 301 3207ft 194kts
05-Jan-18 16:44 33.422915 -111.893238 284 2148ft 159kts
05-Jan-18 16:45 33.426892 -111.942557 269 1766ft 141kts
05-Jan-18 16:46 33.428624 -111.987203 271 1329ft 139kts
05-Jan-18 16:47 33.428968 -112.020700 265 1117ft 13kts
05-Jan-18 16:48 33.428304 -112.021787 193 1117ft 0kts

Navigation Log

Ident Type
Flight plan parsing failed, navigation log unavailable